Oxley, Arkansas
Current Conditions -  °F | °C
As of 2:55 PM on Thursday 20 Nov 2014 (Local Time) from KCCA Reporting Station
Few Clouds Few Clouds  
Wind Chill: 54°   Ceiling: Unl
Heat Index: 54°   Visibility: 10mi
Dew Point: 28°   Wind: 7mph
Humidity: 38%   Direction: 80°E
Pressure: 30.17"   Gusts: NA
Location:  35.8223°N, 92.5849°W
Report Text: KCCA 202055Z AUTO 08006KT 10SM FEW036 12/M02 A3017 RMK AO2
Loading
Personal Weather Stations






























Interactive Weather Map New forecast layout! Learn more

10-Day Weather Forecast

Advertisements
Track Severe Weather on mobile